Portada
METAR-TAF:

METAR-TAF

Aeroports :

Sligo, Irlanda

latitud: 54-16-49N, longitud: 8-35-57W, altitud: 3 m

Observació

L'informe es va fer fa 11 minuts, a les 13:00 UTC
Vent 11 kt del Oest
Temperatura 4°C
Humitat 100%
Pressió 1006 hPa
Visibilitat: 9000 m
Núvols disperses a una alçada de 1800 ft
Cel ennuvolat a una alçada de 2400 ft
Cel cobert a una alçada de 3400 ft

METAR: EISG 261300Z 26011KT 9000 SCT018 BKN024 OVC034 04/04 Q1006

Hora: 13:11 (13:11 UTC)

Pronòstic

L'informe es va fer fa 2 hores i 11 minuts, a les 11:00 UTC
Pronòstic vàlid del 26 a les 12 UTC al 26 a les 21 UTC
Vent 12 kt del Oest
Visibilitat 10 km o més
Núvols disperses a una alçada de 2000 ft
Temporalment
l' 26 a les 12 UTC al 26 a les 15 UTC
Vent 15 kt del Oest
Núvols disperses a una alçada de 1800 ft, Cumulonimbus.
xàfecs de pluja, Calamarsa petit o neu granulada

TAF: EISG 261100Z 2612/2621 26012KT 9999 SCT020 TEMPO 2612/2615 27015KT -SHRAGS SCT018CB

Observacions i pronòstics meteorològics de més de 4000 aeroports (METAR i TAF).

Les estacions disponibles són els punts grocs i vermells al mapa.

Posi el ratolí al punt desitjat per veure el nom de l'estació.

Feu clic per veure les observacions i els pronòstics meteorològics.

Per canviar el mapa: feu clic els botons verds amb una creu de color negre per apropar; al botó verd amb un guió per allunyar la imatge; o en les fletxes verdes per a mapes adjacents.


METAR-TAF: